Greenfield, MA (01301)

8:03 AM EDT on September 05, 2015 (GMT -0400)
Beacon Field | | Change Station
CLOSE
Current Station
Personal Weather Station
Location: Greenfield, MA
Elevation: 289 ft
Nearby Weather Stations

Elev 289 ft 42.60 °N, 72.59 °W | Updated 3 minutes ago

Partly Cloudy
Partly Cloudy
54.7 °F
Feels Like 54.7 °F
N
0.0
Wind Variable Wind from SW
Gusts 0.0 mph

Today
High -- | Low -- °F
--% Chance of Precip.
Yesterday
High -- | Low -- °F
Precip. -- in
6:19 AM 7:18 PM
Waning Gibbous, 49% visible
Pressure 30.33 in
Visibility 10.0 miles
Clouds Clear
Dew Point 54 °F
Humidity 96%
Rainfall 0.00 in
Snow Depth Not available.
UV 1 out of 12
Pollen 9.30 out of 12
Air Quality Not available.
Flu Activity Not available.
METAR KORE 051152Z AUTO 00000KT 10SM CLR 12/11 A3033 RMK AO2 SLP271 T01220106 10122 20083 53011
Pressure 30.33 in
Visibility 10.0 miles
Clouds Clear
Dew Point 54 °F
Humidity 96%
Rainfall 0.00 in
Snow Depth Not available.
UV 1 out of 12
Pollen 9.30 out of 12
Air Quality Not available.
Flu Activity Not available.
METAR KORE 051152Z AUTO 00000KT 10SM CLR 12/11 A3033 RMK AO2 SLP271 T01220106 10122 20083 53011

10-Day Weather Forecast

×

Almanac

Astronomy

Sep. 05, 2015 Rise Set
Actual Time
Civil Twilight
Nautical Twilight
Astronomical Twilight
Moon
Length of Visible Light
Length of Day
Tomorrow will be .
, % of the Moon is Illuminated

Today's Extremes

State Highs State Lows

Community

WunderPhotos

Upload Photos

1,852,453 photos uploaded!

WunderBlogs® & News

Nearby

Air Quality

  Air Quality AQ Index Pollutant
Not available.

Snow Depth

Station Depth Elevation

Earthquake Activity

City Distance Mag. Time & Date
Minimum magnitude displayed is 2.5.

Coastal Water Temperatures

Place Temperature

Stations

Nearby Weather Stations

Station Location Temp. Windchill Dew Point Humidity Wind Precip. Elev Updated Type